Data for 07/30/2010

Time Sea-Level Adjusted Pressure Absolute Pressure Temperature Relative Humidity Dew Point   
(mb) (inHg) (mb) (inHg) (C) (F) (%) (C) (F)
00:05 1022 30.18 851 25.13 18.8 65.9 37 3.8 38.8
00:10 1022 30.18 851 25.13 18.6 65.4 37 3.8 38.9
00:15 1022 30.18 851 25.13 18.3 65 37 3.6 38.5
00:20 1021 30.15 851 25.13 18 64.4 38 3.4 38.2
00:25 1021 30.15 851 25.13 17.8 64.1 40 4.2 39.6
00:30 1021 30.15 851 25.13 17.7 63.8 39 3.6 38.5
00:35 1021 30.15 851 25.13 17.4 63.4 39 3.6 38.5
00:40 1021 30.15 851 25.13 17.4 63.3 38 2.9 37.3
00:45 1021 30.15 851 25.13 17.8 64.1 32 1.2 34.2
00:50 1022 30.18 851 25.13 18.4 65 35 2.7 36.9
00:55 1022 30.18 851 25.13 18.3 65 32 1.7 35.1
01:00 1022 30.18 851 25.13 18.3 64.9 37 3.4 38
01:05 1022 30.18 851 25.13 17.8 64.1 39 3.7 38.7
01:10 1022 30.18 851 25.13 17.5 63.6 35 2.2 35.9
01:15 1022 30.18 851 25.13 17.5 63.5 40 3.9 39.1
01:20 1022 30.18 851 25.13 17.5 63.4 37 2.6 36.7
01:25 1022 30.18 851 25.13 17.4 63.3 35 2.1 35.8
01:30 1022 30.18 851 25.13 17.5 63.4 39 3.6 38.5
01:35 1022 30.18 851 25.13 17.3 63.2 38 2.9 37.3
01:40 1022 30.18 851 25.13 17.2 63 39 3.4 38
01:45 1022 30.18 851 25.13 17.3 63.1 38 2.9 37.3
01:50 1022 30.18 851 25.13 17.3 63.1 37 2.5 36.6
01:55 1022 30.18 851 25.13 17.2 62.9 41 3.8 38.9
02:00 1022 30.18 851 25.13 17.2 63 36 2.3 36.1
02:05 1022 30.18 851 25.13 17.4 63.2 36 2.4 36.3
02:10 1022 30.18 851 25.13 17.4 63.4 37 2.6 36.7
02:15 1022 30.18 851 25.13 17.2 62.9 36 2.2 35.9
02:20 1022 30.18 851 25.13 17.4 63.3 36 2.3 36.2
02:25 1022 30.18 851 25.13 17.5 63.5 38 3.2 37.8
02:30 1022 30.18 851 25.13 17.7 63.8 34 1.7 35
02:35 1022 30.18 851 25.13 17.3 63.2 38 3.1 37.6
02:40 1022 30.18 851 25.13 16.5 61.8 39 2.8 37
02:45 1022 30.18 851 25.13 16.4 61.6 41 3.1 37.6
02:50 1022 30.18 851 25.13 16.3 61.4 41 3.1 37.7
02:55 1022 30.18 851 25.13 16.5 61.6 43 4.1 39.3
03:00 1022 30.18 851 25.13 16.3 61.3 43 3.9 39.1
03:05 1022 30.18 851 25.13 16.2 61.1 42 3.3 38
03:10 1022 30.18 851 25.13 16 60.9 41 2.8 37
03:15 1022 30.18 851 25.13 16 60.8 43 3.5 38.2
03:20 1022 30.18 851 25.13 15.7 60.2 44 3.5 38.2
03:25 1022 30.18 851 25.13 15.5 59.9 46 4 39.3
03:30 1022 30.18 851 25.13 15.3 59.5 43 2.7 36.8
03:35 1022 30.18 851 25.13 15.9 60.6 41 2.9 37.2
03:40 1022 30.18 851 25.13 16 60.8 42 3.1 37.5
03:45 1022 30.18 851 25.13 15.9 60.6 43 3.4 38.2
03:50 1022 30.18 851 25.13 15.7 60.2 45 3.8 38.8
03:55 1022 30.18 851 25.13 15.9 60.6 36 0.8 33.4
04:00 1022 30.18 851 25.13 16.7 62 39 2.7 36.8
04:05 1022 30.18 851 25.13 16.3 61.3 40 2.7 36.8
04:10 1022 30.18 851 25.13 16 60.8 42 3.4 38.1
04:15 1022 30.18 851 25.13 16 60.7 40 2.6 36.7
04:20 1022 30.18 851 25.13 15.9 60.6 41 2.7 36.9
04:25 1022 30.18 851 25.13 15.7 60.2 44 3.5 38.3
04:30 1022 30.18 851 25.13 15.6 60.1 39 2 35.5
04:35 1022 30.18 851 25.13 16.2 61.1 39 2.3 36.2
04:40 1022 30.18 851 25.13 15.9 60.5 42 3 37.3
04:45 1022 30.18 851 25.13 15.7 60.3 41 2.7 36.8
04:50 1022 30.18 851 25.13 15.6 60.2 41 2.5 36.5
04:55 1022 30.18 851 25.13 15.7 60.3 41 2.6 36.7
05:00 1022 30.18 851 25.13 15.7 60.2 41 2.7 36.9
05:05 1022 30.18 851 25.13 15.5 59.8 43 3 37.4
05:10 1022 30.18 851 25.13 15.1 59.2 46 3.6 38.4
05:15 1022 30.18 851 25.13 14.5 58.1 44 2.5 36.6
05:20 1022 30.18 851 25.13 14.9 58.9 41 1.8 35.3
05:25 1022 30.18 851 25.13 15.5 59.8 40 2.1 35.9
05:30 1022 30.18 851 25.13 15.8 60.4 37 1.1 34.1
05:35 1022 30.18 851 25.13 16.5 61.7 36 1.7 35
05:40 1022 30.18 851 25.13 16.4 61.5 40 2.7 36.8
05:45 1022 30.18 851 25.13 15.6 60.1 40 2 35.6
05:50 1022 30.18 851 25.13 15.5 59.9 40 2.2 35.9
05:55 1022 30.18 851 25.13 15.1 59.3 42 2.6 36.6
06:00 1022 30.18 851 25.13 15 59 42 2.2 36
06:05 1022 30.18 851 25.13 14.9 58.7 45 3 37.3
06:10 1022 30.18 851 25.13 14.2 57.5 45 2.6 36.7
06:15 1022 30.18 851 25.13 14.2 57.5 44 2.3 36.1
06:20 1022 30.18 851 25.13 14.4 58 45 2.7 36.9
06:25 1022 30.18 851 25.13 14.5 58.1 44 2.5 36.4
06:30 1022 30.18 851 25.13 14.7 58.4 43 2.4 36.4
06:35 1022 30.18 851 25.13 14.8 58.6 42 2.2 36
06:40 1022 30.18 851 25.13 14.8 58.6 43 2.3 36.1
06:45 1022 30.18 851 25.13 14.9 58.9 42 2.3 36.2
06:50 1022 30.18 851 25.13 14.8 58.7 42 2.2 36
06:55 1022 30.18 851 25.13 14.8 58.7 44 2.8 37
07:00 1022 30.18 851 25.13 14.8 58.6 44 2.7 36.9
07:05 1022 30.18 851 25.13 15.1 59.2 42 2.5 36.5
07:10 1022 30.18 851 25.13 15.3 59.6 42 2.6 36.6
07:15 1022 30.18 851 25.13 15.6 60.1 42 2.8 37
07:20 1022 30.18 851 25.13 15.8 60.4 43 3.2 37.7
07:25 1022 30.18 851 25.13 15.6 60.1 43 3.2 37.7
07:30 1022 30.18 851 25.13 15.5 59.9 44 3.3 37.9
07:35 1022 30.18 851 25.13 15.8 60.4 43 3.3 38
07:40 1022 30.18 851 25.13 16.2 61.1 38 2.1 35.8
07:45 1022 30.18 851 25.13 16.9 62.4 38 2.8 37
07:50 1022 30.18 851 25.13 17.3 63.2 40 3.8 38.8
07:55 1022 30.18 852 25.16 17.8 64.1 36 2.8 37.1
08:00 1022 30.18 851 25.13 17.9 64.2 38 3.3 38
08:05 1022 30.18 851 25.13 17.9 64.1 40 4.2 39.6
08:10 1022 30.18 851 25.13 17.8 64 43 5.3 41.5
08:15 1022 30.18 851 25.13 17.6 63.6 45 5.8 42.4
08:20 1022 30.18 851 25.13 18 64.4 41 4.9 40.7
08:25 1022 30.18 851 25.13 18.5 65.3 41 5.3 41.5
08:30 1022 30.18 851 25.13 18.9 66 36 3.8 38.9
08:35 1022 30.18 851 25.13 19.2 66.6 40 5.4 41.6
08:40 1022 30.18 851 25.13 19.8 67.6 39 5.4 41.7
08:45 1022 30.18 851 25.13 20.2 68.4 36 5 41
08:50 1022 30.18 851 25.13 20.9 69.5 34 4.5 40
08:55 1022 30.18 851 25.13 21.5 70.7 33 4.8 40.7
09:00 1022 30.18 851 25.13 21.8 71.3 31 4 39.2
09:05 1022 30.18 851 25.13 22.2 71.9 30 4 39.2
09:10 1022 30.18 851 25.13 22.3 72.2 31 4.7 40.4
09:15 1022 30.18 851 25.13 21.5 70.8 33 4.6 40.3
09:20 1022 30.18 851 25.13 21.5 70.8 33 4.8 40.6
09:25 1022 30.18 851 25.13 21.3 70.3 34 4.9 40.8
09:30 1022 30.18 851 25.13 21.3 70.4 35 5.3 41.5
09:35 1022 30.18 851 25.13 21.7 71.1 34 5.2 41.4
09:40 1022 30.18 851 25.13 22 71.7 33 5.1 41.2
09:45 1022 30.18 851 25.13 22.4 72.3 33 5.7 42.2
09:50 1022 30.18 851 25.13 22 71.6 32 5 40.9
09:55 1022 30.18 851 25.13 22 71.6 32 4.8 40.7
10:00 1022 30.18 851 25.13 22.2 71.9 31 4.2 39.6
10:05 1022 30.18 851 25.13 22.4 72.3 29 3.9 38.9
10:10 1022 30.18 851 25.13 22.6 72.6 29 4.1 39.3
10:15 1022 30.18 851 25.13 22.7 72.8 29 4 39.2
10:20 1022 30.18 851 25.13 23.6 74.4 29 4.6 40.3
10:25 1022 30.18 851 25.13 23.4 74.2 29 4.8 40.7
10:30 1022 30.18 851 25.13 23.8 74.8 29 4.9 40.9
10:35 1022 30.18 851 25.13 24.6 76.3 28 5.3 41.6
10:40 1022 30.18 851 25.13 24 75.2 29 5.3 41.5
10:45 1022 30.18 851 25.13 23.9 75 29 4.8 40.6
10:50 1022 30.18 851 25.13 24.6 76.3 27 4.8 40.6
10:55 1022 30.18 851 25.13 25.1 77.1 26 4.7 40.5
11:00 1021 30.15 851 25.13 24.8 76.7 28 5.1 41.2
11:05 1021 30.15 851 25.13 24.2 75.6 28 4.9 40.8
11:10 1021 30.15 851 25.13 24.4 75.9 30 5.9 42.6
11:15 1021 30.15 851 25.13 24.2 75.5 28 4.6 40.2
11:20 1021 30.15 851 25.13 24.3 75.7 27 4.5 40.1
11:25 1021 30.15 851 25.13 25.9 78.6 25 4.7 40.4
11:30 1021 30.15 851 25.13 25.8 78.5 28 6 42.9
11:35 1021 30.15 851 25.13 25.4 77.7 26 4.9 40.9
11:40 1021 30.15 850 25.1 26.4 79.6 28 6.5 43.7
11:45 1021 30.15 850 25.1 27 80.5 26 6.2 43.2
11:50 1021 30.15 850 25.1 26.9 80.5 27 6.4 43.6
11:55 1021 30.15 850 25.1 26.6 79.9 27 6.1 43
12:00 1021 30.15 850 25.1 26.8 80.2 28 6.9 44.5
12:05 1021 30.15 850 25.1 26.6 79.8 28 6.8 44.2
12:10 1021 30.15 850 25.1 26.3 79.3 28 6.6 43.9
12:15 1021 30.15 850 25.1 27 80.6 27 6.7 44
12:20 1021 30.15 850 25.1 27.7 81.9 26 6.8 44.3
12:25 1021 30.15 850 25.1 26.7 80 26 6 42.8
12:30 1021 30.15 850 25.1 27.4 81.3 24 5.4 41.8
12:35 1021 30.15 850 25.1 27.1 80.8 25 5.6 42
12:40 1021 30.15 850 25.1 26.9 80.5 26 6.2 43.1
12:45 1020 30.12 850 25.1 27.3 81.2 24 5.2 41.3
12:50 1020 30.12 850 25.1 27.3 81.1 25 5.8 42.5
12:55 1020 30.12 849 25.07 28.3 82.9 23 5.7 42.3
13:00 1020 30.12 849 25.07 29 84.2 22 5.4 41.8
13:05 1020 30.12 849 25.07 28.5 83.2 22 5.1 41.1
13:10 1020 30.12 849 25.07 29.5 85.2 20 4.8 40.7
13:15 1020 30.12 849 25.07 29.9 85.8 22 6 42.8
13:20 1020 30.12 849 25.07 28.1 82.5 24 5.9 42.7
13:25 1020 30.12 849 25.07 28.2 82.7 23 5.1 41.2
13:30 1020 30.12 849 25.07 29.9 85.8 20 5.1 41.2
13:35 1020 30.12 849 25.07 30.6 87 20 5.6 42.1
13:40 1020 30.12 849 25.07 30.5 86.9 21 5.9 42.6
13:45 1020 30.12 849 25.07 29.2 84.6 21 5 40.9
13:50 1020 30.12 849 25.07 28.5 83.2 21 4.7 40.4
13:55 1020 30.12 849 25.07 29 84.2 21 5 40.9
14:00 1020 30.12 849 25.07 30.2 86.4 18 3.6 38.4
14:05 1020 30.12 849 25.07 31.3 88.4 18 4.7 40.5
14:10 1020 30.12 849 25.07 30.7 87.3 19 4.8 40.7
14:15 1020 30.12 849 25.07 30.4 86.6 19 4.2 39.5
14:20 1020 30.12 849 25.07 30.3 86.5 18 3.9 38.9
14:25 1020 30.12 849 25.07 30.6 87 18 3.5 38.4
14:30 1020 30.12 849 25.07 30.2 86.4 18 3.7 38.7
14:35 1020 30.12 849 25.07 31.3 88.3 18 4.6 40.2
14:40 1019 30.09 849 25.07 31.5 88.8 18 5 40.9
14:45 1019 30.09 849 25.07 31.6 88.9 17 3.8 38.9
14:50 1019 30.09 849 25.07 31.4 88.5 16 3 37.4
14:55 1019 30.09 849 25.07 30.8 87.5 16 2.4 36.3
15:00 1019 30.09 849 25.07 31.1 87.9 17 3.9 39
15:05 1019 30.09 849 25.07 31.1 87.9 15 2.2 35.9
15:10 1019 30.09 848 25.04 32.1 89.7 15 2.7 36.8
15:15 1019 30.09 848 25.04 32.4 90.2 15 2.6 36.6
15:20 1019 30.09 848 25.04 32.1 89.9 16 3.7 38.6
15:25 1019 30.09 848 25.04 32.1 89.7 15 2.9 37.1
15:30 1019 30.09 848 25.04 32.3 90.2 15 2.9 37.3
15:35 1019 30.09 848 25.04 31.8 89.2 15 2 35.7
15:40 1019 30.09 848 25.04 32.5 90.4 14 2.1 35.8
15:45 1019 30.09 848 25.04 32.3 90.1 15 2.6 36.7
15:50 1019 30.09 848 25.04 31.6 88.9 15 2.1 35.9
15:55 1019 30.09 848 25.04 31.6 89 15 2.5 36.6
16:00 1019 30.09 848 25.04 32.2 89.9 14 2 35.5
16:05 1019 30.09 848 25.04 32.4 90.4 15 2.8 37
16:10 1019 30.09 848 25.04 32.2 90 15 2.5 36.6
16:15 1019 30.09 848 25.04 32 89.5 15 2.5 36.4
16:20 1019 30.09 848 25.04 32.1 89.9 15 2.7 36.9
16:25 1018 30.06 848 25.04 31.7 89 15 2.6 36.8
16:30 1018 30.06 848 25.04 31.5 88.7 15 2.6 36.6
16:35 1018 30.06 848 25.04 31.8 89.3 15 2.5 36.5
16:40 1018 30.06 848 25.04 31.7 89 15 2.6 36.7
16:45 1018 30.06 847 25.01 31.6 88.9 15 2.5 36.4
16:50 1018 30.06 847 25.01 32.5 90.4 15 2.7 36.9
16:55 1018 30.06 847 25.01 33 91.4 15 3.4 38.1
17:00 1018 30.06 847 25.01 31.9 89.4 15 2.3 36.1
17:05 1018 30.06 847 25.01 31.6 88.8 15 2.1 35.8
17:10 1018 30.06 847 25.01 32.1 89.7 15 2.3 36.2
17:15 1018 30.06 847 25.01 32.6 90.8 14 2.5 36.6
17:20 1018 30.06 847 25.01 33 91.4 14 2.3 36.1
17:25 1018 30.06 847 25.01 32.8 91.1 15 2.8 37
17:30 1018 30.06 847 25.01 32.1 89.8 14 2.1 35.8
17:35 1018 30.06 847 25.01 32.8 91.1 14 2.4 36.4
17:40 1018 30.06 847 25.01 31.9 89.3 15 2.5 36.5
17:45 1018 30.06 847 25.01 31.8 89.3 15 2.6 36.7
17:50 1018 30.06 847 25.01 31.9 89.4 16 3 37.4
17:55 1018 30.06 847 25.01 31.6 88.8 15 2.5 36.5
18:00 1018 30.06 847 25.01 31.4 88.4 16 2.6 36.8
18:05 1018 30.06 847 25.01 30.8 87.5 16 2.3 36.2
18:10 1018 30.06 847 25.01 30.7 87.3 17 3.1 37.6
18:15 1018 30.06 847 25.01 30.5 86.9 16 2.4 36.4
18:20 1018 30.06 847 25.01 30.4 86.6 17 3.1 37.6
18:25 1018 30.06 847 25.01 30.2 86.3 17 2.4 36.3
18:30 1018 30.06 847 25.01 30.4 86.7 15 1.6 34.8
18:35 1018 30.06 847 25.01 30.7 87.2 16 2.3 36.1
18:40 1017 30.03 847 25.01 30.9 87.5 17 3 37.3
18:45 1017 30.03 847 25.01 30.9 87.7 17 3.7 38.7
18:50 1017 30.03 847 25.01 31.3 88.3 18 4.2 39.5
18:55 1017 30.03 847 25.01 30.7 87.3 19 4.6 40.2
19:00 1017 30.03 847 25.01 30.5 86.9 19 4.3 39.8
19:05 1017 30.03 847 25.01 30.4 86.6 17 3.2 37.8
19:10 1017 30.03 846 24.98 30.2 86.3 18 3.6 38.5
19:15 1017 30.03 846 24.98 29.8 85.7 19 4.1 39.3
19:20 1017 30.03 846 24.98 29.6 85.4 19 4.1 39.4
19:25 1017 30.03 846 24.98 29.6 85.3 20 4.7 40.4
19:30 1017 30.03 846 24.98 29.4 84.9 21 4.9 40.8
19:35 1017 30.03 846 24.98 29.2 84.6 21 5.3 41.6
19:40 1017 30.03 846 24.98 29 84.1 22 5.4 41.7
19:45 1017 30.03 847 25.01 28.7 83.7 22 5.5 42
19:50 1018 30.06 847 25.01 28.2 82.8 29 8.7 47.6
19:55 1018 30.06 847 25.01 26.6 79.8 28 7 44.6
20:00 1018 30.06 847 25.01 26.3 79.3 25 5.1 41.2
20:05 1018 30.06 847 25.01 25.9 78.7 27 5.6 42.1
20:10 1018 30.06 847 25.01 25.4 77.6 30 6.8 44.2
20:15 1018 30.06 847 25.01 24.5 76 33 7.5 45.5
20:20 1018 30.06 847 25.01 24.1 75.4 34 7.4 45.4
20:25 1018 30.06 847 25.01 24.1 75.3 31 6.4 43.4
20:30 1018 30.06 848 25.04 24.2 75.6 32 6.8 44.2
20:35 1019 30.09 848 25.04 24.1 75.5 33 7.2 44.9
20:40 1019 30.09 848 25.04 23.9 75 33 6.9 44.5
20:45 1019 30.09 848 25.04 23.7 74.6 34 6.9 44.4
20:50 1019 30.09 848 25.04 23.7 74.7 33 6.9 44.3
20:55 1019 30.09 848 25.04 23.8 74.8 32 6.5 43.6
21:00 1019 30.09 848 25.04 23.2 73.8 40 8.9 48.1
21:05 1019 30.09 848 25.04 22.7 72.9 39 8.4 47
21:10 1019 30.09 848 25.04 22.9 73.2 37 7.7 45.8
21:15 1019 30.09 848 25.04 23.4 74 37 7.9 46.3
21:20 1019 30.09 848 25.04 23.5 74.4 38 8.6 47.5
21:25 1019 30.09 849 25.07 23.6 74.4 39 8.9 48
21:30 1019 30.09 849 25.07 23.6 74.4 38 8.8 47.8
21:35 1020 30.12 849 25.07 23.5 74.3 41 9.7 49.4
21:40 1020 30.12 849 25.07 23.2 73.8 40 9.2 48.5
21:45 1020 30.12 849 25.07 22.9 73.2 38 8.2 46.8
21:50 1020 30.12 849 25.07 22.7 72.8 39 8.1 46.5
21:55 1020 30.12 849 25.07 22.6 72.7 39 8.1 46.6
22:00 1020 30.12 849 25.07 22.7 72.9 39 8.2 46.7
22:05 1020 30.12 849 25.07 22.8 73.1 38 7.8 46
22:10 1020 30.12 849 25.07 22.8 73 41 9.2 48.5
22:15 1020 30.12 849 25.07 22.4 72.3 40 8.5 47.2
22:20 1020 30.12 849 25.07 22.5 72.5 40 8.2 46.8
22:25 1020 30.12 849 25.07 22.3 72.1 40 8.1 46.5
22:30 1020 30.12 849 25.07 22.1 71.7 43 9.1 48.3
22:35 1020 30.12 849 25.07 21.7 71 46 9.7 49.5
22:40 1020 30.12 849 25.07 21.2 70.2 50 10.6 51.1
22:45 1020 30.12 849 25.07 21 69.9 49 10.2 50.3
22:50 1020 30.12 849 25.07 20.9 69.6 52 10.9 51.6
22:55 1020 30.12 849 25.07 20.7 69.2 53 10.9 51.6
23:00 1020 30.12 849 25.07 20.5 68.8 55 11.2 52.2
23:05 1020 30.12 849 25.07 20.1 68.2 56 11.2 52.1
23:10 1020 30.12 849 25.07 20 67.9 56 11.1 52.1
23:15 1020 30.12 849 25.07 19.7 67.4 56 10.8 51.4
23:20 1020 30.12 849 25.07 19.7 67.4 53 10.1 50.1
23:25 1020 30.12 849 25.07 19.9 67.9 53 10.1 50.2
23:30 1020 30.12 849 25.07 20.1 68.1 52 10 49.9
23:35 1020 30.12 849 25.07 19.9 67.8 53 10.1 50.2
23:40 1020 30.12 849 25.07 19.8 67.6 53 10.1 50.1
23:45 1020 30.12 849 25.07 19.5 67.1 55 10.5 50.9
23:50 1020 30.12 849 25.07 19.3 66.8 55 10.2 50.3
23:55 1020 30.12 849 25.07 19.4 66.9 54 9.8 49.7
24:00 1020 30.12 849 25.07 19.8 67.6 50 9.1 48.3